^^
Your Local Weather - Clay, NY Station Historical Data
Daily Summary for March 5, 2017 Units:  English    Metric   Both
« Previous Day
Next Day »
Daily Weekly Monthly Yearly Custom
  High: Low: Average:
Temperature: 27.8 °F 3.0 °F 15.6 °F
Dew Point: 11.1 °F -6.4 °F -0.6 °F
Humidity: 78% 24% 51%
Wind Speed: 4.0mph 0.0mph 0.8mph
Wind Gust: 7.0mph - -
Wind- - South
Pressure: 30.78 in 30.48 in -
Precipitation: 0.00 in    
Historical Graphs
 
 
Tabular Data for March 5, 2017
Time Temperature Dew Point Pressure Wind Wind Speed Wind Gust Humidity Rainfall Rate (Hourly) solar
00:04 7.5 °F 0.1 °F 30.71 in Calm     71% 0.00 in 0 W/m2
00:05 7.5 °F 0.1 °F 30.71 in Calm     71% 0.00 in 0 W/m2
00:12 7.5 °F -0.9 °F 30.71 in Calm     68% 0.00 in 0 W/m2
00:18 7.6 °F -1.4 °F 30.71 in Calm     66% 0.00 in 0 W/m2
00:23 7.5 °F -1.5 °F 30.72 in Calm     66% 0.00 in 0 W/m2
00:30 7.4 °F -1.9 °F 30.72 in Calm     65% 0.00 in 0 W/m2
00:36 7.3 °F -2.0 °F 30.72 in Calm     65% 0.00 in 0 W/m2
00:42 7.2 °F -1.8 °F 30.72 in Calm   1.0 mph 66% 0.00 in 0 W/m2
00:48 7.0 °F -1.7 °F 30.72 in Calm   1.0 mph 67% 0.00 in 0 W/m2
00:54 6.7 °F -1.9 °F 30.72 in Calm     67% 0.00 in 0 W/m2
01:00 6.5 °F -1.8 °F 30.72 in Calm     68% 0.00 in 0 W/m2
01:06 6.5 °F -2.5 °F 30.72 in Calm     66% 0.00 in 0 W/m2
01:12 6.4 °F -2.5 °F 30.72 in Calm     66% 0.00 in 0 W/m2
01:18 6.4 °F -2.9 °F 30.72 in Calm     65% 0.00 in 0 W/m2
01:24 6.4 °F -3.5 °F 30.73 in Calm     63% 0.00 in 0 W/m2
01:30 6.4 °F -3.9 °F 30.73 in Calm   1.0 mph 62% 0.00 in 0 W/m2
01:36 6.5 °F -4.8 °F 30.73 in NNW 1.0 mph 2.0 mph 59% 0.00 in 0 W/m2
01:42 6.5 °F -4.8 °F 30.73 in NNW 1.0 mph 1.0 mph 59% 0.00 in 0 W/m2
01:48 6.5 °F -5.2 °F 30.73 in NNW 1.0 mph 3.0 mph 58% 0.00 in 0 W/m2
01:54 6.5 °F -5.5 °F 30.73 in NE 1.0 mph 1.0 mph 57% 0.00 in 0 W/m2
02:00 6.5 °F -5.9 °F 30.73 in NE 1.0 mph 1.0 mph 56% 0.00 in 0 W/m2
02:06 6.4 °F -6.0 °F 30.73 in Calm   1.0 mph 56% 0.00 in 0 W/m2
02:12 6.4 °F -5.6 °F 30.73 in Calm   4.0 mph 57% 0.00 in 0 W/m2
02:18 6.2 °F -5.8 °F 30.73 in NNE 1.0 mph 4.0 mph 57% 0.00 in 0 W/m2
02:24 6.1 °F -5.5 °F 30.73 in Calm     58% 0.00 in 0 W/m2
02:30 6.0 °F -5.6 °F 30.73 in Calm     58% 0.00 in 0 W/m2
02:36 6.0 °F -6.0 °F 30.73 in Calm   2.0 mph 57% 0.00 in 0 W/m2
02:42 6.0 °F -5.6 °F 30.73 in NNE 1.0 mph 1.0 mph 58% 0.00 in 0 W/m2
02:48 5.8 °F -5.1 °F 30.73 in Calm   1.0 mph 60% 0.00 in 0 W/m2
02:54 5.6 °F -5.3 °F 30.73 in Calm     60% 0.00 in 0 W/m2
03:00 5.4 °F -5.2 °F 30.73 in Calm     61% 0.00 in 0 W/m2
03:06 5.1 °F -5.1 °F 30.73 in Calm     62% 0.00 in 0 W/m2
03:12 4.9 °F -4.6 °F 30.73 in Calm     64% 0.00 in 0 W/m2
03:18 4.7 °F -4.2 °F 30.74 in Calm     66% 0.00 in 0 W/m2
03:24 4.6 °F -4.3 °F 30.74 in Calm     66% 0.00 in 0 W/m2
03:30 4.4 °F -4.1 °F 30.74 in Calm     67% 0.00 in 0 W/m2
03:36 4.2 °F -4.0 °F 30.75 in Calm     68% 0.00 in 0 W/m2
03:42 4.2 °F -3.7 °F 30.75 in Calm     69% 0.00 in 0 W/m2
03:48 4.1 °F -3.5 °F 30.75 in Calm     70% 0.00 in 0 W/m2
03:54 4.0 °F -3.3 °F 30.75 in Calm     71% 0.00 in 0 W/m2
04:00 3.8 °F -3.5 °F 30.75 in Calm     71% 0.00 in 0 W/m2
04:06 3.7 °F -3.6 °F 30.75 in Calm     71% 0.00 in 0 W/m2
04:12 3.7 °F -3.3 °F 30.75 in Calm     72% 0.00 in 0 W/m2
04:18 3.6 °F -3.1 °F 30.75 in Calm     73% 0.00 in 0 W/m2
04:24 3.5 °F -3.2 °F 30.75 in Calm     73% 0.00 in 0 W/m2
04:30 3.3 °F -3.4 °F 30.75 in Calm     73% 0.00 in 0 W/m2
04:36 3.2 °F -3.5 °F 30.76 in Calm     73% 0.00 in 0 W/m2
04:42 3.1 °F -3.3 °F 30.76 in Calm     74% 0.00 in 0 W/m2
04:48 3.1 °F -3.3 °F 30.76 in Calm     74% 0.00 in 0 W/m2
04:54 3.4 °F -2.7 °F 30.76 in Calm     75% 0.00 in 0 W/m2
05:00 3.8 °F -2.4 °F 30.76 in Calm     75% 0.00 in 0 W/m2
05:06 3.8 °F -2.6 °F 30.76 in Calm     74% 0.00 in 0 W/m2
05:12 3.9 °F -2.5 °F 30.76 in Calm     74% 0.00 in 0 W/m2
05:18 4.0 °F -2.7 °F 30.76 in Calm     73% 0.00 in 0 W/m2
05:24 3.9 °F -2.8 °F 30.76 in Calm     73% 0.00 in 0 W/m2
05:30 3.8 °F -2.6 °F 30.76 in Calm     74% 0.00 in 0 W/m2
05:36 3.7 °F -2.7 °F 30.76 in Calm     74% 0.00 in 0 W/m2
05:42 3.6 °F -2.6 °F 30.76 in Calm     75% 0.00 in 0 W/m2
05:48 3.4 °F -2.7 °F 30.76 in Calm     75% 0.00 in 0 W/m2
05:54 3.2 °F -2.9 °F 30.76 in Calm     75% 0.00 in 0 W/m2
06:00 3.1 °F -2.8 °F 30.76 in Calm     76% 0.00 in 0 W/m2
06:06 3.1 °F -2.8 °F 30.77 in Calm     76% 0.00 in 0 W/m2
06:12 3.3 °F -2.3 °F 30.77 in Calm     77% 0.00 in 0 W/m2
06:18 3.4 °F -2.2 °F 30.77 in Calm     77% 0.00 in 0 W/m2
06:24 3.4 °F -2.2 °F 30.76 in Calm     77% 0.00 in 0 W/m2
06:30 3.4 °F -1.9 °F 30.77 in Calm     78% 0.00 in 0 W/m2
06:36 3.4 °F -1.9 °F 30.77 in Calm     78% 0.00 in 5 W/m2
06:42 3.2 °F -2.1 °F 30.77 in Calm     78% 0.00 in 7 W/m2
06:48 3.1 °F -2.2 °F 30.78 in Calm     78% 0.00 in 11 W/m2
06:54 3.0 °F -2.3 °F 30.77 in Calm     78% 0.00 in 12 W/m2
07:00 3.0 °F -2.3 °F 30.78 in Calm     78% 0.00 in 16 W/m2
07:06 3.0 °F -2.3 °F 30.78 in Calm     78% 0.00 in 21 W/m2
07:12 3.3 °F -2.0 °F 30.78 in Calm     78% 0.00 in 21 W/m2
07:18 3.5 °F -1.8 °F 30.77 in Calm     78% 0.00 in 28 W/m2
07:24 4.2 °F -1.1 °F 30.77 in Calm   1.0 mph 78% 0.00 in 32 W/m2
07:30 4.8 °F -0.6 °F 30.78 in Calm     78% 0.00 in 26 W/m2
07:36 5.6 °F -0.6 °F 30.78 in Calm   1.0 mph 75% 0.00 in 102 W/m2
07:42 6.4 °F -1.6 °F 30.77 in NNE 1.0 mph 1.0 mph 69% 0.00 in 156 W/m2
07:48 6.9 °F -1.8 °F 30.78 in NNE 1.0 mph 1.0 mph 67% 0.00 in 204 W/m2
07:54 7.5 °F -2.1 °F 30.77 in Calm   1.0 mph 64% 0.00 in 174 W/m2
08:00 8.2 °F -2.5 °F 30.76 in Calm     61% 0.00 in 172 W/m2
08:06 8.8 °F -3.0 °F 30.76 in NE 1.0 mph 3.0 mph 58% 0.00 in 195 W/m2
08:12 9.0 °F -3.2 °F 30.77 in NE 1.0 mph 1.0 mph 57% 0.00 in 174 W/m2
08:18 9.0 °F -3.5 °F 30.77 in ENE 1.0 mph 2.0 mph 56% 0.00 in 141 W/m2
08:24 9.4 °F -2.8 °F 30.77 in ENE 1.0 mph 2.0 mph 57% 0.00 in 158 W/m2
08:30 9.8 °F -2.8 °F 30.77 in ENE 1.0 mph 1.0 mph 56% 0.00 in 148 W/m2
08:36 10.1 °F -2.9 °F 30.77 in Calm   1.0 mph 55% 0.00 in 195 W/m2
08:42 10.9 °F -3.3 °F 30.78 in Calm   1.0 mph 52% 0.00 in 216 W/m2
08:48 11.9 °F -2.0 °F 30.78 in Calm   1.0 mph 53% 0.00 in 294 W/m2
08:54 13.3 °F -1.1 °F 30.78 in WNW 1.0 mph 1.0 mph 52% 0.00 in 392 W/m2
09:00 12.9 °F -5.0 °F 30.78 in WNW 1.0 mph 1.0 mph 44% 0.00 in 425 W/m2
09:06 13.3 °F -2.3 °F 30.78 in WNW 1.0 mph 2.0 mph 49% 0.00 in 445 W/m2
09:12 12.7 °F -3.8 °F 30.78 in WNW 1.0 mph 1.0 mph 47% 0.00 in 462 W/m2
09:18 12.9 °F -2.3 °F 30.78 in WNW 1.0 mph 3.0 mph 50% 0.00 in 478 W/m2
09:24 13.6 °F -1.6 °F 30.78 in WSW 2.0 mph 2.0 mph 50% 0.00 in 492 W/m2
09:30 14.8 °F -3.2 °F 30.78 in NNW 2.0 mph 3.0 mph 44% 0.00 in 506 W/m2
09:36 14.1 °F -4.3 °F 30.78 in NW 2.0 mph 4.0 mph 43% 0.00 in 520 W/m2
09:42 13.7 °F -4.2 °F 30.78 in NW 2.0 mph 2.0 mph 44% 0.00 in 534 W/m2
09:48 15.2 °F -2.4 °F 30.77 in NNW 1.0 mph 2.0 mph 45% 0.00 in 550 W/m2
09:54 16.5 °F -2.6 °F 30.77 in NW 2.0 mph 2.0 mph 42% 0.00 in 564 W/m2
10:00 15.9 °F -4.2 °F 30.78 in NW 3.0 mph 3.0 mph 40% 0.00 in 578 W/m2
10:06 15.9 °F -6.4 °F 30.77 in NE 2.0 mph 3.0 mph 36% 0.00 in 589 W/m2
10:12 16.9 °F -1.8 °F 30.77 in WNW 1.0 mph 3.0 mph 43% 0.00 in 603 W/m2
10:18 16.9 °F -3.3 °F 30.77 in SW 2.0 mph 3.0 mph 40% 0.00 in 615 W/m2
10:24 16.9 °F -1.3 °F 30.76 in WNW 2.0 mph 3.0 mph 44% 0.00 in 624 W/m2
10:30 18.0 °F -2.8 °F 30.76 in North 2.0 mph 2.0 mph 39% 0.00 in 633 W/m2
10:36 17.5 °F -3.3 °F 30.76 in NW 1.0 mph 3.0 mph 39% 0.00 in 645 W/m2
10:42 17.9 °F -2.9 °F 30.75 in NW 1.0 mph 1.0 mph 39% 0.00 in 654 W/m2
10:48 19.4 °F -2.1 °F 30.75 in North 1.0 mph 3.0 mph 38% 0.00 in 663 W/m2
10:54 19.4 °F -2.1 °F 30.75 in North 1.0 mph 2.0 mph 38% 0.00 in 670 W/m2
11:00 19.9 °F -2.2 °F 30.74 in NW 1.0 mph 3.0 mph 37% 0.00 in 677 W/m2
11:06 20.4 °F -1.8 °F 30.73 in NNW 2.0 mph 3.0 mph 37% 0.00 in 682 W/m2
11:12 19.7 °F -3.6 °F 30.73 in NE 2.0 mph 2.0 mph 35% 0.00 in 689 W/m2
11:18 18.6 °F -5.8 °F 30.73 in ENE 3.0 mph 3.0 mph 33% 0.00 in 696 W/m2
11:24 19.3 °F -3.3 °F 30.73 in North 3.0 mph 3.0 mph 36% 0.00 in 701 W/m2
11:30 19.9 °F -2.8 °F 30.72 in NNW 2.0 mph 2.0 mph 36% 0.00 in 705 W/m2
11:36 20.0 °F -3.9 °F 30.72 in ENE 2.0 mph 5.0 mph 34% 0.00 in 705 W/m2
11:42 20.5 °F -0.6 °F 30.72 in NE 2.0 mph 4.0 mph 39% 0.00 in 710 W/m2
11:48 19.6 °F -3.7 °F 30.71 in ENE 3.0 mph 4.0 mph 35% 0.00 in 714 W/m2
11:54 20.3 °F -5.6 °F 30.70 in NNE 2.0 mph 3.0 mph 31% 0.00 in 715 W/m2
12:00 21.2 °F -2.2 °F 30.70 in NE 1.0 mph 2.0 mph 35% 0.00 in 721 W/m2
12:06 21.5 °F -3.2 °F 30.70 in SE 1.0 mph 3.0 mph 33% 0.00 in 719 W/m2
12:12 21.4 °F -4.6 °F 30.69 in SE 3.0 mph 5.0 mph 31% 0.00 in 722 W/m2
12:18 21.8 °F 0.0 °F 30.69 in South 4.0 mph 7.0 mph 38% 0.00 in 719 W/m2
12:24 21.5 °F -5.2 °F 30.68 in ENE 4.0 mph 5.0 mph 30% 0.00 in 719 W/m2
12:30 22.2 °F -2.6 °F 30.68 in East 2.0 mph 2.0 mph 33% 0.00 in 717 W/m2
12:36 22.5 °F -1.7 °F 30.68 in South 2.0 mph 7.0 mph 34% 0.00 in 715 W/m2
12:42 22.4 °F -1.8 °F 30.68 in SE 3.0 mph 3.0 mph 34% 0.00 in 712 W/m2
12:48 22.3 °F -3.1 °F 30.68 in SSE 2.0 mph 5.0 mph 32% 0.00 in 712 W/m2
12:54 23.1 °F -6.0 °F 30.67 in NW 1.0 mph 2.0 mph 27% 0.00 in 708 W/m2
13:00 22.8 °F -4.8 °F 30.67 in SSW 2.0 mph 2.0 mph 29% 0.00 in 705 W/m2
13:06 22.6 °F -6.4 °F 30.67 in SSW 1.0 mph 2.0 mph 27% 0.00 in 701 W/m2
13:12 24.4 °F -0.6 °F 30.66 in NW 1.0 mph 5.0 mph 33% 0.00 in 696 W/m2
13:18 24.6 °F -2.5 °F 30.66 in WSW 3.0 mph 5.0 mph 30% 0.00 in 689 W/m2
13:24 23.2 °F -3.0 °F 30.66 in SW 3.0 mph 4.0 mph 31% 0.00 in 680 W/m2
13:30 24.0 °F -0.4 °F 30.65 in SSW 4.0 mph 4.0 mph 34% 0.00 in 677 W/m2
13:36 23.9 °F -1.7 °F 30.65 in WSW 3.0 mph 4.0 mph 32% 0.00 in 671 W/m2
13:42 24.3 °F -0.1 °F 30.64 in SSW 2.0 mph 2.0 mph 34% 0.00 in 663 W/m2
13:48 24.9 °F -0.2 °F 30.64 in South 1.0 mph 2.0 mph 33% 0.00 in 656 W/m2
13:54 25.1 °F -3.5 °F 30.63 in West 1.0 mph 3.0 mph 28% 0.00 in 650 W/m2
14:00 24.7 °F -2.4 °F 30.63 in WSW 2.0 mph 2.0 mph 30% 0.00 in 638 W/m2
14:06 25.0 °F -2.1 °F 30.62 in SW 3.0 mph 3.0 mph 30% 0.00 in 615 W/m2
14:12 24.8 °F -2.3 °F 30.62 in SW 2.0 mph 2.0 mph 30% 0.00 in 580 W/m2
14:18 24.9 °F -0.2 °F 30.62 in SSW 3.0 mph 5.0 mph 33% 0.00 in 580 W/m2
14:24 25.3 °F -0.5 °F 30.62 in SSW 4.0 mph 4.0 mph 32% 0.00 in 584 W/m2
14:30 25.6 °F -1.6 °F 30.62 in SSW 3.0 mph 3.0 mph 30% 0.00 in 566 W/m2
14:36 25.4 °F -4.0 °F 30.62 in South 2.0 mph 6.0 mph 27% 0.00 in 568 W/m2
14:42 25.3 °F -2.6 °F 30.61 in WSW 2.0 mph 3.0 mph 29% 0.00 in 554 W/m2
14:48 25.3 °F 0.8 °F 30.61 in South 2.0 mph 3.0 mph 34% 0.00 in 545 W/m2
14:54 26.5 °F -0.8 °F 30.61 in NW 1.0 mph 3.0 mph 30% 0.00 in 455 W/m2
15:00 26.6 °F -2.2 °F 30.60 in West 1.0 mph 1.0 mph 28% 0.00 in 517 W/m2
15:06 26.4 °F -2.4 °F 30.60 in WSW 2.0 mph 4.0 mph 28% 0.00 in 501 W/m2
15:12 26.0 °F -2.7 °F 30.60 in West 2.0 mph 3.0 mph 28% 0.00 in 482 W/m2
15:18 26.7 °F -3.7 °F 30.60 in NE 2.0 mph 3.0 mph 26% 0.00 in 469 W/m2
15:24 26.3 °F -3.2 °F 30.59 in NE 2.0 mph 2.0 mph 27% 0.00 in 454 W/m2
15:30 26.7 °F -3.7 °F 30.59 in ENE 1.0 mph 1.0 mph 26% 0.00 in 432 W/m2
15:36 27.1 °F -2.5 °F 30.59 in WSW 1.0 mph 2.0 mph 27% 0.00 in 422 W/m2
15:42 27.4 °F 0.0 °F 30.58 in WSW 2.0 mph 2.0 mph 30% 0.00 in 369 W/m2
15:48 26.7 °F -5.3 °F 30.58 in SSE 1.0 mph 2.0 mph 24% 0.00 in 387 W/m2
15:54 27.3 °F -3.1 °F 30.58 in SSE 1.0 mph 1.0 mph 26% 0.00 in 302 W/m2
16:00 27.8 °F -2.7 °F 30.58 in Calm   1.0 mph 26% 0.00 in 330 W/m2
16:06 27.7 °F -3.6 °F 30.58 in South 1.0 mph 1.0 mph 25% 0.00 in 343 W/m2
16:12 27.3 °F -2.3 °F 30.57 in South 2.0 mph 6.0 mph 27% 0.00 in 320 W/m2
16:18 27.0 °F -1.8 °F 30.57 in SE 2.0 mph 6.0 mph 28% 0.00 in 297 W/m2
16:24 26.5 °F -4.7 °F 30.57 in SE 1.0 mph 4.0 mph 25% 0.00 in 283 W/m2
16:30 27.5 °F -3.0 °F 30.57 in SE 1.0 mph 1.0 mph 26% 0.00 in 255 W/m2
16:36 27.2 °F -1.7 °F 30.57 in Calm   2.0 mph 28% 0.00 in 243 W/m2
16:42 26.6 °F -3.7 °F 30.57 in SE 1.0 mph 1.0 mph 26% 0.00 in 220 W/m2
16:48 26.4 °F -3.9 °F 30.57 in SSW 1.0 mph 1.0 mph 26% 0.00 in 105 W/m2
16:54 26.2 °F -2.5 °F 30.57 in SSE 1.0 mph 3.0 mph 28% 0.00 in 32 W/m2
17:00 25.9 °F -3.6 °F 30.57 in SSE 2.0 mph 2.0 mph 27% 0.00 in 30 W/m2
17:06 25.8 °F -3.6 °F 30.57 in SW 1.0 mph 2.0 mph 27% 0.00 in 28 W/m2
17:12 25.7 °F -3.7 °F 30.57 in SW 1.0 mph 1.0 mph 27% 0.00 in 26 W/m2
17:18 25.6 °F -3.8 °F 30.57 in ESE 1.0 mph 3.0 mph 27% 0.00 in 25 W/m2
17:24 25.6 °F -3.1 °F 30.56 in ESE 1.0 mph 1.0 mph 28% 0.00 in 21 W/m2
17:30 25.5 °F -4.7 °F 30.57 in Calm     26% 0.00 in 16 W/m2
17:36 25.4 °F -4.0 °F 30.57 in Calm     27% 0.00 in 12 W/m2
17:42 25.3 °F -1.2 °F 30.57 in Calm   1.0 mph 31% 0.00 in 11 W/m2
17:48 25.2 °F -3.4 °F 30.57 in Calm   1.0 mph 28% 0.00 in 9 W/m2
17:54 25.2 °F -2.0 °F 30.57 in Calm     30% 0.00 in 7 W/m2
18:00 25.0 °F -2.1 °F 30.57 in Calm     30% 0.00 in 0 W/m2
18:06 24.8 °F -2.3 °F 30.57 in Calm     30% 0.00 in 0 W/m2
18:12 24.5 °F -1.9 °F 30.57 in Calm     31% 0.00 in 0 W/m2
18:18 24.0 °F 5.7 °F 30.57 in Calm     45% 0.00 in 0 W/m2
18:24 23.5 °F 3.7 °F 30.57 in Calm     42% 0.00 in 0 W/m2
18:30 22.9 °F 5.2 °F 30.56 in Calm     46% 0.00 in 0 W/m2
18:36 22.5 °F 5.3 °F 30.56 in Calm     47% 0.00 in 0 W/m2
18:42 22.0 °F 4.8 °F 30.56 in Calm     47% 0.00 in 0 W/m2
18:49 21.6 °F 4.9 °F 30.56 in Calm     48% 0.00 in 0 W/m2
18:54 21.6 °F 9.1 °F 30.56 in Calm     58% 0.00 in 0 W/m2
19:00 21.5 °F 9.7 °F 30.55 in Calm     60% 0.00 in 0 W/m2
19:06 21.4 °F 10.4 °F 30.56 in Calm     62% 0.00 in 0 W/m2
19:12 21.2 °F 10.2 °F 30.56 in Calm     62% 0.00 in 0 W/m2
19:18 20.9 °F 6.4 °F 30.56 in Calm     53% 0.00 in 0 W/m2
19:24 20.8 °F 5.1 °F 30.56 in Calm     50% 0.00 in 0 W/m2
19:30 20.6 °F 5.7 °F 30.56 in Calm     52% 0.00 in 0 W/m2
19:36 20.4 °F 5.5 °F 30.56 in Calm     52% 0.00 in 0 W/m2
19:42 20.2 °F 5.8 °F 30.56 in Calm     53% 0.00 in 0 W/m2
19:48 20.0 °F 5.2 °F 30.56 in Calm     52% 0.00 in 0 W/m2
19:54 19.7 °F 5.7 °F 30.56 in Calm     54% 0.00 in 0 W/m2
20:00 19.3 °F 7.3 °F 30.55 in Calm     59% 0.00 in 0 W/m2
20:06 19.4 °F 7.8 °F 30.55 in Calm     60% 0.00 in 0 W/m2
20:12 19.5 °F 8.9 °F 30.55 in Calm     63% 0.00 in 0 W/m2
20:18 19.5 °F 8.2 °F 30.55 in Calm     61% 0.00 in 0 W/m2
20:24 19.3 °F 6.9 °F 30.54 in Calm     58% 0.00 in 0 W/m2
20:30 19.1 °F 6.3 °F 30.54 in Calm     57% 0.00 in 0 W/m2
20:36 18.9 °F 7.7 °F 30.54 in Calm     61% 0.00 in 0 W/m2
20:42 18.8 °F 9.0 °F 30.54 in Calm     65% 0.00 in 0 W/m2
20:48 19.3 °F 11.1 °F 30.53 in Calm     70% 0.00 in 0 W/m2
20:54 19.3 °F 10.5 °F 30.53 in Calm     68% 0.00 in 0 W/m2
21:00 19.2 °F 9.7 °F 30.53 in Calm     66% 0.00 in 0 W/m2
21:06 19.7 °F 8.8 °F 30.52 in ENE 1.0 mph 4.0 mph 62% 0.00 in 0 W/m2
21:12 20.1 °F 8.4 °F 30.51 in ENE 1.0 mph 5.0 mph 60% 0.00 in 0 W/m2
21:18 20.6 °F 8.1 °F 30.51 in East 1.0 mph 5.0 mph 58% 0.00 in 0 W/m2
21:24 20.8 °F 7.9 °F 30.51 in ESE 1.0 mph 3.0 mph 57% 0.00 in 0 W/m2
21:30 20.8 °F 7.6 °F 30.52 in ENE 1.0 mph 1.0 mph 56% 0.00 in 0 W/m2
21:36 20.7 °F 7.9 °F 30.52 in East 1.0 mph 1.0 mph 57% 0.00 in 0 W/m2
21:42 20.6 °F 7.8 °F 30.52 in Calm   1.0 mph 57% 0.00 in 0 W/m2
21:48 20.7 °F 7.5 °F 30.52 in Calm   1.0 mph 56% 0.00 in 0 W/m2
21:54 20.6 °F 7.8 °F 30.52 in Calm     57% 0.00 in 0 W/m2
22:00 20.4 °F 8.0 °F 30.52 in Calm     58% 0.00 in 0 W/m2
22:06 20.0 °F 8.3 °F 30.51 in Calm     60% 0.00 in 0 W/m2
22:12 19.6 °F 8.3 °F 30.51 in Calm     61% 0.00 in 0 W/m2
22:18 19.4 °F 7.8 °F 30.51 in Calm     60% 0.00 in 0 W/m2
22:24 19.4 °F 7.4 °F 30.51 in Calm     59% 0.00 in 0 W/m2
22:30 19.7 °F 7.3 °F 30.51 in Calm     58% 0.00 in 0 W/m2
22:36 19.6 °F 6.8 °F 30.51 in Calm   1.0 mph 57% 0.00 in 0 W/m2
22:42 19.8 °F 6.2 °F 30.50 in Calm   1.0 mph 55% 0.00 in 0 W/m2
22:48 19.8 °F 5.0 °F 30.50 in SE 1.0 mph 2.0 mph 52% 0.00 in 0 W/m2
22:54 19.9 °F 5.1 °F 30.50 in SE 1.0 mph 1.0 mph 52% 0.00 in 0 W/m2
23:00 19.9 °F 4.7 °F 30.50 in Calm   1.0 mph 51% 0.00 in 0 W/m2
23:06 19.7 °F 4.0 °F 30.49 in Calm   1.0 mph 50% 0.00 in 0 W/m2
23:12 19.6 °F 3.5 °F 30.49 in SE 1.0 mph 2.0 mph 49% 0.00 in 0 W/m2
23:18 19.6 °F 3.5 °F 30.49 in SE 1.0 mph 2.0 mph 49% 0.00 in 0 W/m2
23:24 19.5 °F 3.9 °F 30.49 in SE 1.0 mph 1.0 mph 50% 0.00 in 0 W/m2
23:30 19.2 °F 4.0 °F 30.48 in Calm     51% 0.00 in 0 W/m2
23:36 18.8 °F 4.9 °F 30.48 in Calm     54% 0.00 in 0 W/m2
23:42 18.7 °F 4.4 °F 30.48 in Calm     53% 0.00 in 0 W/m2
23:48 18.7 °F 4.8 °F 30.48 in ESE 1.0 mph 3.0 mph 54% 0.00 in 0 W/m2
23:54 18.8 °F 4.1 °F 30.48 in East 1.0 mph 2.0 mph 52% 0.00 in 0 W/m2
Country Meadow, Clay, NY, USA
Compliments of Weather Underground - 2 mb